Whitefield, NH

7:00 AM EDT on August 27, 2014 (GMT -0400)
Mount Washington Regional | Change Station
CLOSE
Current Station
Airport
Location: Whitefield,
Elevation: 1073 ft
Nearby Weather Stations

Elev 1073 ft 44.37 °N, 71.54 °W | Updated 8 minutes ago

Scattered Clouds
Scattered Clouds
57 °F
Feels Like 57 °F
N
0
Wind Variable Wind from North

Today
High -- | Low -- °F
--% Chance of Precip.
Yesterday
High -- | Low -- °F
Precip. -- in
6:03 AM 7:31 PM
Waxing Crescent, 3% visible
Pressure 29.97 in
Visibility 10.0 miles
Clouds Scattered Clouds 4200 ft
Scattered Clouds 12000 ft
Dew Point 55 °F
Humidity 93%
Rainfall 0.00 in
Snow Depth Not available.
UV 0 out of 12
Pollen 8.50 out of 12
Air Quality Not available.
Flu Activity Not available.
METAR KHIE 271052Z AUTO 00000KT 10SM SCT042 SCT120 14/13 A2997 RMK AO2 SLP147 T01390128

More Conditions Fewer Conditions

Pressure 29.97 in
Visibility 10.0 miles
Clouds Scattered Clouds 4200 ft
Scattered Clouds 12000 ft
Dew Point 55 °F
Humidity 93%
Rainfall 0.00 in
Snow Depth Not available.
UV 0 out of 12
Pollen 8.50 out of 12
Air Quality Not available.
Flu Activity Not available.
METAR KHIE 271052Z AUTO 00000KT 10SM SCT042 SCT120 14/13 A2997 RMK AO2 SLP147 T01390128

More Conditions Fewer Conditions

10-Day Weather Forecast

Almanac

Astronomy

Aug. 27, 2014 Rise Set
Actual Time 6:03 AM EDT 7:31 PM EDT
Civil Twilight 5:32 AM EDT 8:01 PM EDT
Nautical Twilight 4:56 AM EDT 8:38 PM EDT
Astronomical Twilight 4:16 AM EDT 9:17 PM EDT
Moon 8:02 AM EDT 8:15 PM EDT
Length of Visible Light 14h 29m
Length of Day
13h 28m
Tomorrow will be 2m 53s shorter.
Waxing Crescent, 3% of the Moon is Illuminated
Today
Waxing Crescent
Sep 2
First Quarter
Sep 8
Full
Sep 15
Last Quarter
Sep 24
New

Today's Extremes

State Highs State Lows

Community

WunderPhotos

Upload Photos

1,747,667 photos uploaded!

Nearby

Air Quality

  Air Quality AQ Index Pollutant
Wednesday Good
PM2.5
Wednesday Good
OZONE

Snow Depth

Station Depth Elevation
No new snow has been reported.

Earthquake Activity

City Distance Mag. Time & Date
No recent earthquake activity has been reported nearby.
Minimum magnitude displayed is 2.5.

Coastal Water Temperatures

Place Temperature
No Stations Reporting

Nearby Weather Stations